createdAt,value
2022-11-07T00:01:36.237Z,98609.31
2022-11-07T00:04:03.125Z,98639.59
2022-11-07T00:06:30.192Z,98632.06
2022-11-07T00:08:58.911Z,98633.72
2022-11-07T00:11:25.542Z,98621.56
2022-11-07T00:13:52.433Z,98631.09
2022-11-07T00:16:19.118Z,98619.75
2022-11-07T00:18:45.865Z,98601.09
2022-11-07T00:21:12.538Z,98628.16
2022-11-07T00:23:42.686Z,98624.91
2022-11-07T00:26:12.472Z,98640.94
2022-11-07T00:28:42.092Z,98641.75
2022-11-07T00:31:10.804Z,98644.00
2022-11-07T00:33:37.662Z,98635.72
2022-11-07T00:36:05.063Z,98618.81
2022-11-07T00:38:32.248Z,98609.81
2022-11-07T00:41:04.660Z,98648.50
2022-11-07T00:43:31.926Z,98653.47
2022-11-07T00:46:04.509Z,98634.47
2022-11-07T00:48:31.892Z,98593.72
2022-11-07T00:51:05.622Z,98657.69
2022-11-07T00:53:32.498Z,98639.59
2022-11-07T00:56:03.523Z,98655.63
2022-11-07T00:58:30.202Z,98654.97
2022-11-07T01:00:56.900Z,98648.47
2022-11-07T01:03:42.105Z,98649.13
2022-11-07T01:06:09.213Z,98643.81
2022-11-07T01:08:36.014Z,98641.28
2022-11-07T01:11:07.097Z,98647.63
2022-11-07T01:13:34.211Z,98644.81
2022-11-07T01:16:01.102Z,98655.34
2022-11-07T01:18:28.128Z,98645.69
2022-11-07T01:20:54.903Z,98645.69
2022-11-07T01:23:23.038Z,98642.72
2022-11-07T01:25:49.781Z,98642.31
2022-11-07T01:28:16.455Z,98639.38
2022-11-07T01:30:44.960Z,98653.31
2022-11-07T01:33:13.155Z,98661.88
2022-11-07T01:35:40.645Z,98666.72
2022-11-07T01:38:07.431Z,98651.44
2022-11-07T01:40:54.274Z,98647.75
2022-11-07T01:43:20.912Z,98647.09
2022-11-07T01:45:47.785Z,98655.16
2022-11-07T01:48:14.522Z,98660.38
2022-11-07T01:50:41.195Z,98666.78
2022-11-07T01:53:08.114Z,98666.78
2022-11-07T01:55:35.969Z,98658.06
2022-11-07T01:58:07.280Z,98667.28
2022-11-07T02:00:35.701Z,98652.31
2022-11-07T02:03:12.956Z,98675.56
2022-11-07T02:06:09.728Z,98669.78
2022-11-07T02:08:39.143Z,98661.19
2022-11-07T02:11:06.519Z,98671.53
2022-11-07T02:13:33.283Z,98665.47
2022-11-07T02:16:05.694Z,98662.78
2022-11-07T02:18:36.584Z,98663.06
2022-11-07T02:21:33.811Z,98674.41
2022-11-07T02:24:09.759Z,98676.56
2022-11-07T02:26:38.333Z,98671.84
2022-11-07T02:29:09.218Z,98672.25
2022-11-07T02:31:35.909Z,98676.31
2022-11-07T02:34:02.684Z,98676.84
2022-11-07T02:36:29.751Z,98661.34
2022-11-07T02:38:58.879Z,98666.06
2022-11-07T02:41:29.499Z,98678.31
2022-11-07T02:44:04.676Z,98667.53
2022-11-07T02:46:32.791Z,98673.47
2022-11-07T02:49:01.274Z,98672.53
2022-11-07T02:51:28.338Z,98667.00
2022-11-07T02:53:55.172Z,98663.31
2022-11-07T02:56:22.953Z,98680.13
2022-11-07T02:58:50.023Z,98669.81
2022-11-07T03:01:16.830Z,98669.19
2022-11-07T03:03:45.436Z,98676.41
2022-11-07T03:06:16.442Z,98676.47
2022-11-07T03:08:43.369Z,98671.88
2022-11-07T03:11:11.523Z,98663.97
2022-11-07T03:13:38.552Z,98668.97
2022-11-07T03:16:09.383Z,98660.63
2022-11-07T03:18:36.555Z,98645.63
2022-11-07T03:21:04.721Z,98631.53
2022-11-07T03:23:31.931Z,98633.34
2022-11-07T03:25:58.749Z,98634.72
2022-11-07T03:28:25.415Z,98643.09
2022-11-07T03:30:52.729Z,98642.25
2022-11-07T03:33:19.609Z,98665.44
2022-11-07T03:35:46.549Z,98682.00
2022-11-07T03:38:13.446Z,98664.00
2022-11-07T03:40:40.206Z,98663.47
2022-11-07T03:43:06.871Z,98659.59
2022-11-07T03:45:33.525Z,98662.72
2022-11-07T03:48:00.124Z,98661.56
2022-11-07T03:50:26.911Z,98667.44
2022-11-07T03:52:53.645Z,98659.41
2022-11-07T03:55:20.275Z,98673.13
2022-11-07T03:57:47.397Z,98660.00
2022-11-07T04:00:16.077Z,98666.09
2022-11-07T04:02:43.902Z,98667.66
2022-11-07T04:05:12.341Z,98665.91
2022-11-07T04:07:39.106Z,98659.25
2022-11-07T04:10:06.250Z,98649.22
2022-11-07T04:12:51.545Z,98659.00
2022-11-07T04:15:36.697Z,98645.69
2022-11-07T04:18:03.632Z,98651.72
2022-11-07T04:20:30.313Z,98652.47
2022-11-07T04:22:56.986Z,98641.47
2022-11-07T04:25:43.571Z,98648.91
2022-11-07T04:28:10.262Z,98644.19
2022-11-07T04:30:36.977Z,98645.03
2022-11-07T04:33:03.921Z,98645.41
2022-11-07T04:35:32.933Z,98662.50
2022-11-07T04:38:01.176Z,98660.38
2022-11-07T04:40:29.405Z,98646.97
2022-11-07T04:42:56.882Z,98662.16
2022-11-07T04:45:23.793Z,98657.63
2022-11-07T04:47:50.465Z,98650.78
2022-11-07T04:50:19.201Z,98675.19
2022-11-07T04:52:47.122Z,98669.63
2022-11-07T04:55:20.065Z,98673.50
2022-11-07T04:57:46.723Z,98673.25
2022-11-07T05:00:13.947Z,98680.59
2022-11-07T05:02:40.631Z,98676.84
2022-11-07T05:05:07.751Z,98697.09
2022-11-07T05:07:34.381Z,98695.50
2022-11-07T05:10:01.046Z,98708.38
2022-11-07T05:12:30.825Z,98707.88
2022-11-07T05:14:57.621Z,98699.03
2022-11-07T05:17:27.957Z,98705.91
2022-11-07T05:19:55.157Z,98697.72
2022-11-07T05:22:40.240Z,98702.16
2022-11-07T05:25:07.521Z,98704.63
2022-11-07T05:27:34.203Z,98705.97
2022-11-07T05:30:00.892Z,98712.94
2022-11-07T05:32:27.932Z,98725.59
2022-11-07T05:34:54.660Z,98721.63
2022-11-07T05:37:21.317Z,98715.97
2022-11-07T05:39:52.361Z,98709.19
2022-11-07T05:42:21.548Z,98726.59
2022-11-07T05:44:48.440Z,98717.81
2022-11-07T05:47:15.502Z,98725.19
2022-11-07T05:49:42.206Z,98725.38
2022-11-07T05:52:09.085Z,98718.56
2022-11-07T05:54:36.042Z,98739.03
2022-11-07T05:57:02.874Z,98723.31
2022-11-07T05:59:29.532Z,98667.84
2022-11-07T06:01:56.308Z,98733.97
2022-11-07T06:04:23.307Z,98721.97
2022-11-07T06:06:50.021Z,98723.16
2022-11-07T06:09:16.766Z,98722.72
2022-11-07T06:11:43.480Z,98727.63
2022-11-07T06:14:10.240Z,98696.06
2022-11-07T06:16:40.028Z,98735.53
2022-11-07T06:19:06.689Z,98725.75
2022-11-07T06:21:34.987Z,98733.09
2022-11-07T06:24:01.661Z,98712.53
2022-11-07T06:26:28.446Z,98716.78
2022-11-07T06:28:55.150Z,98720.34
2022-11-07T06:31:22.467Z,98731.69
2022-11-07T06:33:52.584Z,98743.22
2022-11-07T06:36:19.592Z,98726.47
2022-11-07T06:38:46.298Z,98739.75
2022-11-07T06:41:14.685Z,98738.56
2022-11-07T06:43:41.654Z,98749.09
2022-11-07T06:46:11.469Z,98752.59
2022-11-07T06:48:38.908Z,98726.69
2022-11-07T06:51:07.015Z,98759.59
2022-11-07T06:53:34.006Z,98698.28
2022-11-07T06:56:04.918Z,98755.59
2022-11-07T06:58:31.693Z,98741.16
2022-11-07T07:01:03.185Z,98753.22
2022-11-07T07:03:30.440Z,98719.28
2022-11-07T07:06:02.392Z,98719.53
2022-11-07T07:08:29.744Z,98731.28
2022-11-07T07:10:56.451Z,98759.44
2022-11-07T07:13:23.233Z,98741.91
2022-11-07T07:15:58.021Z,98763.28
2022-11-07T07:18:26.088Z,98771.44
2022-11-07T07:20:55.776Z,98777.06
2022-11-07T07:23:22.556Z,98740.41
2022-11-07T07:25:49.537Z,98769.50
2022-11-07T07:28:16.269Z,98747.78
2022-11-07T07:30:47.183Z,98748.47
2022-11-07T07:33:17.552Z,98740.13
2022-11-07T07:35:44.642Z,98738.03
2022-11-07T07:38:13.768Z,98748.94
2022-11-07T07:40:40.821Z,98751.56
2022-11-07T07:43:07.697Z,98750.50
2022-11-07T07:45:34.387Z,98780.97
2022-11-07T07:48:02.704Z,98773.66
2022-11-07T07:50:29.710Z,98758.31
2022-11-07T07:52:57.593Z,98782.66
2022-11-07T07:55:24.811Z,98777.19
2022-11-07T07:57:51.751Z,98769.03
2022-11-07T08:00:18.806Z,98786.34
2022-11-07T08:02:45.804Z,98782.97
2022-11-07T08:15:57.749Z,98783.91
2022-11-07T08:23:50.452Z,98754.50
2022-11-07T08:34:20.419Z,98741.75
2022-11-07T08:36:47.196Z,98751.13
2022-11-07T08:39:15.204Z,98749.56
2022-11-07T08:41:44.276Z,98744.06
2022-11-07T08:44:11.975Z,98717.63
2022-11-07T08:46:41.308Z,98734.78
2022-11-07T08:49:08.452Z,98730.88
2022-11-07T08:59:38.065Z,98718.16
2022-11-07T09:07:35.802Z,98697.91
2022-11-07T09:15:26.844Z,98713.00
2022-11-07T09:20:37.799Z,98704.28
2022-11-07T09:25:49.173Z,98744.88
2022-11-07T09:28:16.505Z,98751.09
2022-11-07T09:30:43.568Z,98732.16
2022-11-07T09:33:10.669Z,98723.25
2022-11-07T09:35:37.513Z,98748.56
2022-11-07T09:38:06.436Z,98744.81
2022-11-07T09:41:06.898Z,98743.31
2022-11-07T09:43:56.884Z,98727.28
2022-11-07T09:47:01.039Z,98738.09
2022-11-07T09:49:44.206Z,98720.66
2022-11-07T09:52:44.312Z,98736.59
2022-11-07T09:55:23.514Z,98737.34
2022-11-07T09:57:54.576Z,98695.78
2022-11-07T10:00:23.517Z,98725.16
2022-11-07T10:02:54.698Z,98711.56
2022-11-07T10:05:46.445Z,98741.22
2022-11-07T10:08:19.396Z,98750.56
2022-11-07T10:11:21.666Z,98728.84
2022-11-07T10:14:01.782Z,98747.81
2022-11-07T10:16:48.215Z,98746.75
2022-11-07T10:19:27.848Z,98764.16
2022-11-07T10:22:06.821Z,98751.25
2022-11-07T10:24:58.577Z,98743.66
2022-11-07T10:27:27.742Z,98710.03
2022-11-07T10:29:56.337Z,98717.53
2022-11-07T10:33:00.401Z,98743.69
2022-11-07T10:35:39.601Z,98751.09
2022-11-07T10:38:40.694Z,98755.56
2022-11-07T10:41:30.410Z,98755.31
2022-11-07T10:44:02.826Z,98752.69
2022-11-07T10:46:41.124Z,98752.84
2022-11-07T10:50:11.639Z,98747.00
2022-11-07T10:52:42.923Z,98691.63
2022-11-07T10:55:16.928Z,98751.09
2022-11-07T10:57:54.165Z,98715.16
2022-11-07T11:00:30.162Z,98752.34
2022-11-07T11:02:58.159Z,98718.25
2022-11-07T11:05:31.339Z,98736.59
2022-11-07T11:08:07.770Z,98734.72
2022-11-07T11:10:42.454Z,98702.22
2022-11-07T11:13:36.901Z,98735.97
2022-11-07T11:16:21.395Z,98710.50
2022-11-07T11:18:58.628Z,98728.09
2022-11-07T11:21:26.873Z,98673.00
2022-11-07T11:23:56.039Z,98658.44
2022-11-07T11:26:33.525Z,98694.81
2022-11-07T11:29:15.118Z,98679.84
2022-11-07T11:31:49.948Z,98670.28
2022-11-07T11:34:20.207Z,98708.41
2022-11-07T11:37:27.916Z,98701.88
2022-11-07T11:40:03.080Z,98705.13
2022-11-07T11:42:56.122Z,98698.50
2022-11-07T11:45:32.152Z,98692.75
2022-11-07T11:48:12.090Z,98674.41
2022-11-07T11:50:49.011Z,98628.03
2022-11-07T11:53:19.888Z,98613.63
2022-11-07T11:56:02.512Z,98664.91
2022-11-07T11:59:01.490Z,98638.41
2022-11-07T12:02:00.996Z,98671.28
2022-11-07T12:04:28.100Z,98671.38
2022-11-07T12:10:16.815Z,98659.13
2022-11-07T12:13:20.006Z,98654.72
2022-11-07T12:15:50.228Z,98653.28
2022-11-07T12:18:50.083Z,98638.16
2022-11-07T12:21:33.591Z,98649.63
2022-11-07T12:24:17.860Z,98641.31
2022-11-07T12:27:14.782Z,98598.09
2022-11-07T12:29:54.095Z,98624.56
2022-11-07T12:32:40.012Z,98621.84
2022-11-07T12:35:19.208Z,98616.88
2022-11-07T12:37:46.933Z,98624.75
2022-11-07T12:40:49.078Z,98607.69
2022-11-07T13:00:36.788Z,98554.16
2022-11-07T13:03:31.841Z,98602.09
2022-11-07T13:06:37.394Z,98565.97
2022-11-07T13:09:23.119Z,98596.00
2022-11-07T13:12:08.011Z,98595.38
2022-11-07T13:14:40.172Z,98576.09
2022-11-07T13:17:20.680Z,98599.53
2022-11-07T13:20:02.522Z,98592.06
2022-11-07T13:22:32.305Z,98582.97
2022-11-07T13:25:06.152Z,98583.81
2022-11-07T13:28:04.672Z,98561.53
2022-11-07T13:30:31.354Z,98583.84
2022-11-07T13:33:00.837Z,98581.69
2022-11-07T13:35:38.776Z,98554.88
2022-11-07T13:38:18.467Z,98563.31
2022-11-07T13:40:58.580Z,98583.72
2022-11-07T13:43:42.101Z,98579.78
2022-11-07T13:46:10.811Z,98571.03
2022-11-07T13:48:48.470Z,98567.00
2022-11-07T13:51:21.293Z,98570.53
2022-11-07T13:53:47.902Z,98569.97
2022-11-07T13:56:28.857Z,98574.13
2022-11-07T13:58:55.898Z,98561.47
2022-11-07T14:01:22.928Z,98554.50
2022-11-07T14:03:49.766Z,98557.44
2022-11-07T14:06:17.568Z,98520.34
2022-11-07T14:08:47.213Z,98542.91
2022-11-07T14:11:19.581Z,98570.97
2022-11-07T14:13:53.204Z,98573.13
2022-11-07T14:16:23.997Z,98563.25
2022-11-07T14:19:15.706Z,98568.69
2022-11-07T14:21:45.834Z,98550.31
2022-11-07T14:24:26.218Z,98552.66
2022-11-07T14:27:04.564Z,98556.44
2022-11-07T14:29:31.705Z,98546.94
2022-11-07T14:32:02.614Z,98556.88
2022-11-07T14:34:31.624Z,98528.50
2022-11-07T14:39:42.519Z,98526.69
2022-11-07T14:42:15.686Z,98530.06
2022-11-07T14:45:00.027Z,98568.78
2022-11-07T14:47:32.251Z,98556.75
2022-11-07T14:50:01.826Z,98563.97
2022-11-07T14:52:41.587Z,98565.63
2022-11-07T14:55:31.773Z,98547.09
2022-11-07T14:58:01.461Z,98563.78
2022-11-07T15:00:30.652Z,98520.13
2022-11-07T15:03:00.090Z,98526.34
2022-11-07T15:05:36.648Z,98570.38
2022-11-07T15:08:03.695Z,98550.47
2022-11-07T15:10:41.944Z,98564.44
2022-11-07T15:13:27.086Z,98564.81
2022-11-07T15:16:16.490Z,98554.75
2022-11-07T15:18:46.403Z,98546.97
2022-11-07T15:21:56.871Z,98553.53
2022-11-07T15:27:14.324Z,98556.09
2022-11-07T15:30:00.257Z,98520.78
2022-11-07T15:32:35.941Z,98528.47
2022-11-07T15:35:42.296Z,98560.19
2022-11-07T15:38:02.531Z,98558.03
2022-11-07T15:40:30.127Z,98550.25
2022-11-07T15:42:58.916Z,98553.25
2022-11-07T15:45:26.397Z,98511.22
2022-11-07T15:47:56.265Z,98546.66
2022-11-07T15:50:27.491Z,98551.16
2022-11-07T15:52:55.705Z,98543.47
2022-11-07T15:55:33.000Z,98516.44
2022-11-07T15:58:00.350Z,98561.84
2022-11-07T16:00:27.821Z,98554.59
2022-11-07T16:03:00.821Z,98580.28
2022-11-07T16:05:28.764Z,98526.28
2022-11-07T16:07:56.490Z,98567.44
2022-11-07T16:10:26.297Z,98565.00
2022-11-07T16:12:54.589Z,98565.84
2022-11-07T17:17:42.509Z,98506.69
2022-11-07T17:20:49.041Z,98507.41
2022-11-07T17:23:09.161Z,98470.66
2022-11-07T17:25:38.555Z,98501.56
2022-11-07T17:28:06.849Z,98457.63
2022-11-07T17:30:33.935Z,98502.66
2022-11-07T17:33:02.715Z,98527.06
2022-11-07T17:35:33.056Z,98473.28
2022-11-07T17:38:00.245Z,98512.66
2022-11-07T17:40:29.921Z,98496.03
2022-11-07T17:42:57.567Z,98502.91
2022-11-07T17:45:25.343Z,98528.09
2022-11-07T17:47:52.778Z,98521.25
2022-11-07T17:50:21.703Z,98516.81
2022-11-07T17:52:48.385Z,98525.13
2022-11-07T17:55:15.297Z,98510.19
2022-11-07T17:57:43.530Z,98503.78
2022-11-07T18:00:14.453Z,98503.78
2022-11-07T18:02:41.424Z,98518.53
2022-11-07T18:05:13.260Z,98502.31
2022-11-07T18:07:41.008Z,98501.75
2022-11-07T18:10:08.586Z,98534.56
2022-11-07T18:12:35.365Z,98502.63
2022-11-07T18:15:02.133Z,98476.13
2022-11-07T18:17:36.615Z,98495.78
2022-11-07T18:20:05.083Z,98524.06
2022-11-07T18:22:32.652Z,98499.25
2022-11-07T18:24:59.387Z,98476.13
2022-11-07T18:27:26.326Z,98495.47
2022-11-07T18:29:54.625Z,98493.72
2022-11-07T18:32:21.406Z,98507.81
2022-11-07T18:34:48.371Z,98458.88
2022-11-07T18:37:15.160Z,98512.69
2022-11-07T18:39:41.895Z,98505.47
2022-11-07T18:42:08.774Z,98478.31
2022-11-07T18:44:35.541Z,98501.69
2022-11-07T18:47:02.809Z,98473.28
2022-11-07T18:49:30.274Z,98484.94
2022-11-07T18:51:57.022Z,98469.59
2022-11-07T18:54:25.963Z,98482.41
2022-11-07T18:56:52.864Z,98456.63
2022-11-07T18:59:22.889Z,98451.56
2022-11-07T19:01:49.708Z,98479.56
2022-11-07T19:04:19.418Z,98483.03
2022-11-07T19:06:58.505Z,98473.88
2022-11-07T19:09:28.641Z,98495.66
2022-11-07T19:11:56.657Z,98500.66
2022-11-07T19:14:23.925Z,98507.56
2022-11-07T19:16:51.070Z,98495.00
2022-11-07T19:19:17.824Z,98498.38
2022-11-07T19:21:45.221Z,98494.97
2022-11-07T19:24:12.931Z,98511.94
2022-11-07T19:26:39.937Z,98533.72
2022-11-07T19:29:09.348Z,98511.63
2022-11-07T19:31:37.450Z,98517.91
2022-11-07T19:34:05.482Z,98525.03
2022-11-07T19:36:32.221Z,98466.84
2022-11-07T19:38:59.021Z,98490.47
2022-11-07T19:41:25.807Z,98477.06
2022-11-07T19:43:52.703Z,98483.09
2022-11-07T19:46:21.902Z,98507.41
2022-11-07T19:48:50.003Z,98487.53
2022-11-07T19:51:22.198Z,98498.88
2022-11-07T19:53:55.327Z,98497.47
2022-11-07T19:56:23.107Z,98465.63
2022-11-07T19:58:49.969Z,98486.31
2022-11-07T20:01:20.628Z,98475.34
2022-11-07T20:03:49.695Z,98454.28
2022-11-07T20:06:18.667Z,98472.41
2022-11-07T20:08:46.384Z,98457.41
2022-11-07T20:11:18.482Z,98491.94
2022-11-07T20:13:45.747Z,98461.38
2022-11-07T20:16:12.969Z,98477.66
2022-11-07T20:18:41.460Z,98433.72
2022-11-07T20:21:13.325Z,98460.84
2022-11-07T20:23:41.801Z,98460.03
2022-11-07T20:26:11.465Z,98474.56
2022-11-07T20:28:38.284Z,98474.78
2022-11-07T20:31:09.722Z,98472.47
2022-11-07T20:33:36.522Z,98458.75
2022-11-07T20:36:09.472Z,98450.41
2022-11-07T20:38:36.774Z,98472.13
2022-11-07T20:41:04.493Z,98456.63
2022-11-07T20:43:32.446Z,98449.59
2022-11-07T20:46:03.153Z,98453.81
2022-11-07T20:48:29.900Z,98443.25
2022-11-07T20:50:57.769Z,98443.31
2022-11-07T20:53:24.421Z,98446.44
2022-11-07T20:55:51.180Z,98412.13
2022-11-07T20:58:17.926Z,98441.53
2022-11-07T21:00:47.061Z,98423.16
2022-11-07T21:03:15.501Z,98434.56
2022-11-07T21:05:42.453Z,98426.19
2022-11-07T21:08:09.236Z,98428.75
2022-11-07T21:10:35.934Z,98423.63
2022-11-07T21:13:02.680Z,98429.06
2022-11-07T21:15:29.336Z,98404.47
2022-11-07T21:17:56.085Z,98361.03
2022-11-07T21:20:23.333Z,98397.31
2022-11-07T21:22:50.885Z,98400.31
2022-11-07T21:25:17.732Z,98415.69
2022-11-07T21:27:44.676Z,98376.34
2022-11-07T21:30:13.062Z,98408.75
2022-11-07T21:32:40.604Z,98394.38
2022-11-07T21:35:08.692Z,98389.72
2022-11-07T21:37:35.967Z,98395.72
2022-11-07T21:40:02.947Z,98409.63
2022-11-07T21:42:29.644Z,98405.06
2022-11-07T21:44:56.323Z,98421.34
2022-11-07T21:47:23.036Z,98407.72
2022-11-07T21:49:52.468Z,98390.22
2022-11-07T21:52:19.148Z,98396.88
2022-11-07T21:54:45.880Z,98437.66
2022-11-07T21:57:12.599Z,98386.91
2022-11-07T21:59:39.336Z,98405.91
2022-11-07T22:02:06.145Z,98407.88
2022-11-07T22:04:32.929Z,98402.72
2022-11-07T22:06:59.634Z,98424.09
2022-11-07T22:09:26.392Z,98383.63
2022-11-07T22:11:53.112Z,98382.34
2022-11-07T22:14:21.805Z,98421.09
2022-11-07T22:16:50.027Z,98421.09
2022-11-07T22:19:17.978Z,98398.53
2022-11-07T22:21:44.930Z,98416.03
2022-11-07T22:24:11.843Z,98379.41
2022-11-07T22:26:38.840Z,98387.06
2022-11-07T22:29:05.525Z,98385.28
2022-11-07T22:31:32.308Z,98389.75
2022-11-07T22:34:00.865Z,98388.06
2022-11-07T22:36:28.555Z,98365.84
2022-11-07T22:38:57.584Z,98380.53
2022-11-07T22:41:25.787Z,98377.16
2022-11-07T22:43:53.105Z,98345.47
2022-11-07T22:46:25.649Z,98373.31
2022-11-07T22:48:54.207Z,98363.88
2022-11-07T22:51:25.855Z,98334.63
2022-11-07T22:54:13.365Z,98325.69
2022-11-07T22:56:40.792Z,98299.72
2022-11-07T22:59:07.884Z,98336.88
2022-11-07T23:01:37.840Z,98340.81
2022-11-07T23:04:06.030Z,98326.81
2022-11-07T23:06:33.142Z,98325.00
2022-11-07T23:09:00.352Z,98305.22
2022-11-07T23:11:45.992Z,98306.59
2022-11-07T23:14:16.411Z,98310.09
2022-11-07T23:16:48.676Z,98278.09
2022-11-07T23:19:17.162Z,98314.28
2022-11-07T23:21:44.353Z,98316.50
2022-11-07T23:24:11.497Z,98309.28
2022-11-07T23:26:39.248Z,98313.81
2022-11-07T23:29:11.298Z,98299.28
2022-11-07T23:31:43.488Z,98298.16
2022-11-07T23:34:10.566Z,98280.78
2022-11-07T23:36:37.724Z,98246.81
2022-11-07T23:39:06.406Z,98278.34
2022-11-07T23:41:33.576Z,98254.56
2022-11-07T23:44:00.538Z,98225.38
2022-11-07T23:46:45.749Z,98224.50
2022-11-07T23:49:30.966Z,98270.94
2022-11-07T23:51:57.752Z,98245.81
2022-11-07T23:54:43.017Z,98257.94
2022-11-07T23:57:09.743Z,98218.69
2022-11-07T23:59:55.234Z,98257.91
